Terminal Aerodrome Forecast
Issued by NWS

Home | Current Version | Previous Version | Graphics & Text | Print | Product List | Glossary On
Versions: 1 2 3 4 5 6 7 8 9 10 11 12 13 14 15 16 17
000
FTUS43 KMPX 201700 RRA
TAFRNH
TAF
KRNH 201741Z 2018/2118 18008KT 5SM BR OVC010
     FM202000 16008KT 6SM BR OVC013
     FM210400 15007KT 3SM BR OVC008
     FM211500 15007KT 6SM BR SCT008 OVC014=

USA.gov is the U.S. government's official web portal to all federal, state and local government web resources and services.